sensor_id;sensor_type;location;lat;lon;timestamp;P1;durP1;ratioP1;P2;durP2;ratioP2
66087;SDS011;52872;52.994;6.940;2023-03-19T00:00:42;17.73;;;15.93;;
66087;SDS011;52872;52.994;6.940;2023-03-19T00:03:09;17.25;;;15.32;;
66087;SDS011;52872;52.994;6.940;2023-03-19T00:05:36;17.05;;;15.35;;
66087;SDS011;52872;52.994;6.940;2023-03-19T00:08:04;17.50;;;15.70;;
66087;SDS011;52872;52.994;6.940;2023-03-19T00:10:31;17.67;;;15.88;;
66087;SDS011;52872;52.994;6.940;2023-03-19T00:12:57;18.00;;;16.15;;
66087;SDS011;52872;52.994;6.940;2023-03-19T00:15:24;18.27;;;16.38;;
66087;SDS011;52872;52.994;6.940;2023-03-19T00:17:51;19.27;;;17.05;;
66087;SDS011;52872;52.994;6.940;2023-03-19T00:20:19;18.48;;;16.52;;
66087;SDS011;52872;52.994;6.940;2023-03-19T00:22:47;20.30;;;18.17;;
66087;SDS011;52872;52.994;6.940;2023-03-19T00:25:14;19.73;;;17.63;;
66087;SDS011;52872;52.994;6.940;2023-03-19T00:27:41;21.30;;;18.70;;
66087;SDS011;52872;52.994;6.940;2023-03-19T00:30:10;22.73;;;18.67;;
66087;SDS011;52872;52.994;6.940;2023-03-19T00:32:37;21.70;;;19.40;;
66087;SDS011;52872;52.994;6.940;2023-03-19T00:35:04;22.05;;;18.65;;
66087;SDS011;52872;52.994;6.940;2023-03-19T00:37:32;20.08;;;18.00;;
66087;SDS011;52872;52.994;6.940;2023-03-19T00:40:00;20.80;;;18.52;;
66087;SDS011;52872;52.994;6.940;2023-03-19T00:42:27;20.60;;;18.00;;
66087;SDS011;52872;52.994;6.940;2023-03-19T00:44:54;19.85;;;17.75;;
66087;SDS011;52872;52.994;6.940;2023-03-19T00:47:23;19.90;;;17.80;;
66087;SDS011;52872;52.994;6.940;2023-03-19T00:49:50;19.80;;;17.63;;
66087;SDS011;52872;52.994;6.940;2023-03-19T00:52:17;21.17;;;18.17;;
66087;SDS011;52872;52.994;6.940;2023-03-19T00:54:44;21.27;;;18.90;;
66087;SDS011;52872;52.994;6.940;2023-03-19T00:57:11;21.30;;;19.05;;
66087;SDS011;52872;52.994;6.940;2023-03-19T00:59:38;21.63;;;18.10;;
66087;SDS011;52872;52.994;6.940;2023-03-19T01:02:05;19.88;;;17.88;;
66087;SDS011;52872;52.994;6.940;2023-03-19T01:04:32;23.17;;;18.30;;
66087;SDS011;52872;52.994;6.940;2023-03-19T01:06:59;20.00;;;17.90;;
66087;SDS011;52872;52.994;6.940;2023-03-19T01:09:25;22.52;;;19.30;;
66087;SDS011;52872;52.994;6.940;2023-03-19T01:11:52;20.70;;;18.33;;
66087;SDS011;52872;52.994;6.940;2023-03-19T01:14:19;21.23;;;19.02;;
66087;SDS011;52872;52.994;6.940;2023-03-19T01:16:46;19.23;;;17.20;;
66087;SDS011;52872;52.994;6.940;2023-03-19T01:19:14;20.15;;;18.05;;
66087;SDS011;52872;52.994;6.940;2023-03-19T01:21:41;22.08;;;18.88;;
66087;SDS011;52872;52.994;6.940;2023-03-19T01:24:14;19.10;;;17.10;;
66087;SDS011;52872;52.994;6.940;2023-03-19T01:26:42;21.15;;;18.95;;
66087;SDS011;52872;52.994;6.940;2023-03-19T01:29:19;20.00;;;17.90;;
66087;SDS011;52872;52.994;6.940;2023-03-19T01:31:46;20.55;;;18.02;;
66087;SDS011;52872;52.994;6.940;2023-03-19T01:34:51;19.25;;;17.00;;
66087;SDS011;52872;52.994;6.940;2023-03-19T01:37:19;20.30;;;18.15;;
66087;SDS011;52872;52.994;6.940;2023-03-19T01:39:46;18.63;;;16.52;;
66087;SDS011;52872;52.994;6.940;2023-03-19T01:42:14;19.15;;;17.02;;
66087;SDS011;52872;52.994;6.940;2023-03-19T01:45:01;20.77;;;17.98;;
66087;SDS011;52872;52.994;6.940;2023-03-19T01:47:58;18.27;;;16.48;;
66087;SDS011;52872;52.994;6.940;2023-03-19T01:50:48;19.02;;;17.02;;
66087;SDS011;52872;52.994;6.940;2023-03-19T01:53:45;18.08;;;16.08;;
66087;SDS011;52872;52.994;6.940;2023-03-19T01:56:24;19.35;;;17.38;;
66087;SDS011;52872;52.994;6.940;2023-03-19T01:59:06;17.70;;;15.90;;
66087;SDS011;52872;52.994;6.940;2023-03-19T02:02:01;19.38;;;16.10;;
66087;SDS011;52872;52.994;6.940;2023-03-19T02:04:33;18.20;;;16.02;;
66087;SDS011;52872;52.994;6.940;2023-03-19T02:07:03;18.98;;;16.70;;
66087;SDS011;52872;52.994;6.940;2023-03-19T02:09:32;18.00;;;16.08;;
66087;SDS011;52872;52.994;6.940;2023-03-19T02:11:59;19.35;;;17.27;;
66087;SDS011;52872;52.994;6.940;2023-03-19T02:14:27;19.23;;;17.23;;
66087;SDS011;52872;52.994;6.940;2023-03-19T02:16:55;19.23;;;16.70;;
66087;SDS011;52872;52.994;6.940;2023-03-19T02:19:27;18.67;;;16.73;;
66087;SDS011;52872;52.994;6.940;2023-03-19T02:22:01;20.23;;;17.30;;
66087;SDS011;52872;52.994;6.940;2023-03-19T02:24:36;20.20;;;16.40;;
66087;SDS011;52872;52.994;6.940;2023-03-19T02:27:13;17.63;;;14.93;;
66087;SDS011;52872;52.994;6.940;2023-03-19T02:29:44;16.08;;;14.43;;
66087;SDS011;52872;52.994;6.940;2023-03-19T02:32:11;18.00;;;16.10;;
66087;SDS011;52872;52.994;6.940;2023-03-19T02:34:40;19.33;;;16.80;;
66087;SDS011;52872;52.994;6.940;2023-03-19T02:37:29;20.25;;;17.17;;
66087;SDS011;52872;52.994;6.940;2023-03-19T02:40:00;19.15;;;17.15;;
66087;SDS011;52872;52.994;6.940;2023-03-19T02:42:30;20.25;;;17.85;;
66087;SDS011;52872;52.994;6.940;2023-03-19T02:44:57;19.08;;;17.00;;
66087;SDS011;52872;52.994;6.940;2023-03-19T02:47:25;22.00;;;16.83;;
66087;SDS011;52872;52.994;6.940;2023-03-19T02:49:52;20.27;;;15.82;;
66087;SDS011;52872;52.994;6.940;2023-03-19T02:52:19;19.65;;;15.82;;
66087;SDS011;52872;52.994;6.940;2023-03-19T02:54:47;17.30;;;14.23;;
66087;SDS011;52872;52.994;6.940;2023-03-19T02:57:14;16.13;;;13.77;;
66087;SDS011;52872;52.994;6.940;2023-03-19T02:59:41;16.15;;;13.27;;
66087;SDS011;52872;52.994;6.940;2023-03-19T03:02:08;16.30;;;13.80;;
66087;SDS011;52872;52.994;6.940;2023-03-19T03:04:35;16.70;;;14.95;;
66087;SDS011;52872;52.994;6.940;2023-03-19T03:07:03;19.83;;;15.27;;
66087;SDS011;52872;52.994;6.940;2023-03-19T03:09:30;16.92;;;14.45;;
66087;SDS011;52872;52.994;6.940;2023-03-19T03:11:57;17.50;;;13.90;;
66087;SDS011;52872;52.994;6.940;2023-03-19T03:14:24;16.17;;;13.27;;
66087;SDS011;52872;52.994;6.940;2023-03-19T03:16:51;14.23;;;12.73;;
66087;SDS011;52872;52.994;6.940;2023-03-19T03:19:18;16.25;;;12.82;;
66087;SDS011;52872;52.994;6.940;2023-03-19T03:21:45;13.35;;;11.85;;
66087;SDS011;52872;52.994;6.940;2023-03-19T03:24:15;14.18;;;12.75;;
66087;SDS011;52872;52.994;6.940;2023-03-19T03:26:42;13.45;;;12.05;;
66087;SDS011;52872;52.994;6.940;2023-03-19T03:29:12;12.65;;;11.45;;
66087;SDS011;52872;52.994;6.940;2023-03-19T03:31:39;11.48;;;10.27;;
66087;SDS011;52872;52.994;6.940;2023-03-19T03:34:06;12.13;;;10.10;;
66087;SDS011;52872;52.994;6.940;2023-03-19T03:36:33;12.23;;;10.90;;
66087;SDS011;52872;52.994;6.940;2023-03-19T03:39:01;10.73;;;9.63;;
66087;SDS011;52872;52.994;6.940;2023-03-19T03:41:29;12.43;;;10.77;;
66087;SDS011;52872;52.994;6.940;2023-03-19T03:43:56;12.13;;;10.88;;
66087;SDS011;52872;52.994;6.940;2023-03-19T03:46:23;13.00;;;10.85;;
66087;SDS011;52872;52.994;6.940;2023-03-19T03:48:51;12.38;;;11.07;;
66087;SDS011;52872;52.994;6.940;2023-03-19T03:51:18;12.98;;;10.25;;
66087;SDS011;52872;52.994;6.940;2023-03-19T03:53:45;13.23;;;10.23;;
66087;SDS011;52872;52.994;6.940;2023-03-19T03:56:13;11.45;;;10.25;;
66087;SDS011;52872;52.994;6.940;2023-03-19T03:58:40;12.18;;;10.98;;
66087;SDS011;52872;52.994;6.940;2023-03-19T04:01:08;11.02;;;9.98;;
66087;SDS011;52872;52.994;6.940;2023-03-19T04:03:45;10.82;;;9.60;;
66087;SDS011;52872;52.994;6.940;2023-03-19T04:06:22;10.70;;;9.60;;
66087;SDS011;52872;52.994;6.940;2023-03-19T04:09:09;10.13;;;9.13;;
66087;SDS011;52872;52.994;6.940;2023-03-19T04:11:35;10.02;;;8.95;;
66087;SDS011;52872;52.994;6.940;2023-03-19T04:14:04;10.90;;;9.40;;
66087;SDS011;52872;52.994;6.940;2023-03-19T04:16:33;10.15;;;9.10;;
66087;SDS011;52872;52.994;6.940;2023-03-19T04:19:00;9.77;;;8.77;;
66087;SDS011;52872;52.994;6.940;2023-03-19T04:21:27;10.85;;;9.75;;
66087;SDS011;52872;52.994;6.940;2023-03-19T04:23:55;9.70;;;8.70;;
66087;SDS011;52872;52.994;6.940;2023-03-19T04:26:22;10.25;;;9.23;;
66087;SDS011;52872;52.994;6.940;2023-03-19T04:28:49;9.70;;;8.70;;
66087;SDS011;52872;52.994;6.940;2023-03-19T04:31:16;9.98;;;8.93;;
66087;SDS011;52872;52.994;6.940;2023-03-19T04:33:43;9.80;;;8.90;;
66087;SDS011;52872;52.994;6.940;2023-03-19T04:36:10;9.45;;;8.55;;
66087;SDS011;52872;52.994;6.940;2023-03-19T04:38:37;9.20;;;8.27;;
66087;SDS011;52872;52.994;6.940;2023-03-19T04:41:04;9.70;;;8.70;;
66087;SDS011;52872;52.994;6.940;2023-03-19T04:43:38;9.88;;;8.85;;
66087;SDS011;52872;52.994;6.940;2023-03-19T04:46:06;9.35;;;8.38;;
66087;SDS011;52872;52.994;6.940;2023-03-19T04:48:34;8.82;;;7.80;;
66087;SDS011;52872;52.994;6.940;2023-03-19T04:51:02;8.60;;;7.80;;
66087;SDS011;52872;52.994;6.940;2023-03-19T04:53:29;7.60;;;6.90;;
66087;SDS011;52872;52.994;6.940;2023-03-19T04:55:56;8.40;;;7.20;;
66087;SDS011;52872;52.994;6.940;2023-03-19T04:58:23;9.23;;;8.10;;
66087;SDS011;52872;52.994;6.940;2023-03-19T05:00:56;7.72;;;6.93;;
66087;SDS011;52872;52.994;6.940;2023-03-19T05:03:43;7.35;;;6.65;;
66087;SDS011;52872;52.994;6.940;2023-03-19T05:06:10;8.98;;;7.13;;
66087;SDS011;52872;52.994;6.940;2023-03-19T05:08:37;7.78;;;6.90;;
66087;SDS011;52872;52.994;6.940;2023-03-19T05:11:04;7.15;;;6.40;;
66087;SDS011;52872;52.994;6.940;2023-03-19T05:13:51;7.60;;;6.88;;
66087;SDS011;52872;52.994;6.940;2023-03-19T05:16:18;6.22;;;5.63;;
66087;SDS011;52872;52.994;6.940;2023-03-19T05:18:45;7.13;;;6.22;;
66087;SDS011;52872;52.994;6.940;2023-03-19T05:21:13;7.00;;;6.03;;
66087;SDS011;52872;52.994;6.940;2023-03-19T05:23:42;6.43;;;5.82;;
66087;SDS011;52872;52.994;6.940;2023-03-19T05:26:09;5.72;;;5.18;;
66087;SDS011;52872;52.994;6.940;2023-03-19T05:28:55;6.43;;;5.82;;
66087;SDS011;52872;52.994;6.940;2023-03-19T05:31:32;6.10;;;5.50;;
66087;SDS011;52872;52.994;6.940;2023-03-19T05:33:59;6.35;;;5.82;;
66087;SDS011;52872;52.994;6.940;2023-03-19T05:36:28;8.32;;;6.00;;
66087;SDS011;52872;52.994;6.940;2023-03-19T05:39:04;6.07;;;5.50;;
66087;SDS011;52872;52.994;6.940;2023-03-19T05:41:35;8.52;;;5.90;;
66087;SDS011;52872;52.994;6.940;2023-03-19T05:44:04;6.35;;;5.75;;
66087;SDS011;52872;52.994;6.940;2023-03-19T05:46:47;7.68;;;5.75;;
66087;SDS011;52872;52.994;6.940;2023-03-19T05:49:16;7.05;;;5.25;;
66087;SDS011;52872;52.994;6.940;2023-03-19T05:51:43;6.80;;;6.07;;
66087;SDS011;52872;52.994;6.940;2023-03-19T05:54:10;7.65;;;6.53;;
66087;SDS011;52872;52.994;6.940;2023-03-19T05:56:47;6.40;;;5.70;;
66087;SDS011;52872;52.994;6.940;2023-03-19T05:59:33;6.40;;;5.72;;
66087;SDS011;52872;52.994;6.940;2023-03-19T06:02:18;5.93;;;5.32;;
66087;SDS011;52872;52.994;6.940;2023-03-19T06:04:47;6.50;;;5.90;;
66087;SDS011;52872;52.994;6.940;2023-03-19T06:07:17;6.88;;;6.03;;
66087;SDS011;52872;52.994;6.940;2023-03-19T06:09:44;6.90;;;6.20;;
66087;SDS011;52872;52.994;6.940;2023-03-19T06:12:11;6.22;;;5.72;;
66087;SDS011;52872;52.994;6.940;2023-03-19T06:14:57;6.60;;;6.00;;
66087;SDS011;52872;52.994;6.940;2023-03-19T06:17:42;6.78;;;6.18;;
66087;SDS011;52872;52.994;6.940;2023-03-19T06:20:12;6.43;;;5.82;;
66087;SDS011;52872;52.994;6.940;2023-03-19T06:22:40;6.72;;;5.60;;
66087;SDS011;52872;52.994;6.940;2023-03-19T06:25:07;7.32;;;6.50;;
66087;SDS011;52872;52.994;6.940;2023-03-19T06:27:36;7.05;;;6.35;;
66087;SDS011;52872;52.994;6.940;2023-03-19T06:30:24;6.75;;;6.13;;
66087;SDS011;52872;52.994;6.940;2023-03-19T06:32:53;6.70;;;5.63;;
66087;SDS011;52872;52.994;6.940;2023-03-19T06:35:21;7.35;;;6.22;;
66087;SDS011;52872;52.994;6.940;2023-03-19T06:37:49;6.25;;;5.65;;
66087;SDS011;52872;52.994;6.940;2023-03-19T06:40:17;7.55;;;6.78;;
66087;SDS011;52872;52.994;6.940;2023-03-19T06:42:45;6.60;;;6.03;;
66087;SDS011;52872;52.994;6.940;2023-03-19T06:45:14;7.53;;;6.80;;
66087;SDS011;52872;52.994;6.940;2023-03-19T06:47:44;8.75;;;6.10;;
66087;SDS011;52872;52.994;6.940;2023-03-19T06:50:13;6.78;;;6.18;;
66087;SDS011;52872;52.994;6.940;2023-03-19T06:52:41;7.53;;;6.20;;
66087;SDS011;52872;52.994;6.940;2023-03-19T06:55:08;7.45;;;6.75;;
66087;SDS011;52872;52.994;6.940;2023-03-19T06:57:37;7.20;;;6.47;;
66087;SDS011;52872;52.994;6.940;2023-03-19T07:00:04;7.05;;;6.15;;
66087;SDS011;52872;52.994;6.940;2023-03-19T07:02:32;7.40;;;6.72;;
66087;SDS011;52872;52.994;6.940;2023-03-19T07:04:59;8.05;;;6.90;;
66087;SDS011;52872;52.994;6.940;2023-03-19T07:07:26;8.82;;;6.93;;
66087;SDS011;52872;52.994;6.940;2023-03-19T07:09:53;7.75;;;7.05;;
66087;SDS011;52872;52.994;6.940;2023-03-19T07:12:20;7.97;;;7.20;;
66087;SDS011;52872;52.994;6.940;2023-03-19T07:14:47;7.97;;;7.18;;
66087;SDS011;52872;52.994;6.940;2023-03-19T07:17:14;10.15;;;7.28;;
66087;SDS011;52872;52.994;6.940;2023-03-19T07:19:41;9.32;;;8.38;;
66087;SDS011;52872;52.994;6.940;2023-03-19T07:22:08;10.52;;;9.57;;
66087;SDS011;52872;52.994;6.940;2023-03-19T07:24:35;12.70;;;8.52;;
66087;SDS011;52872;52.994;6.940;2023-03-19T07:27:02;10.63;;;9.75;;
66087;SDS011;52872;52.994;6.940;2023-03-19T07:29:29;9.00;;;8.10;;
66087;SDS011;52872;52.994;6.940;2023-03-19T07:31:56;7.90;;;7.10;;
66087;SDS011;52872;52.994;6.940;2023-03-19T07:34:23;10.35;;;8.32;;
66087;SDS011;52872;52.994;6.940;2023-03-19T07:36:50;9.65;;;8.00;;
66087;SDS011;52872;52.994;6.940;2023-03-19T07:39:18;8.25;;;7.40;;
66087;SDS011;52872;52.994;6.940;2023-03-19T07:41:46;8.25;;;7.32;;
66087;SDS011;52872;52.994;6.940;2023-03-19T07:44:14;8.07;;;6.97;;
66087;SDS011;52872;52.994;6.940;2023-03-19T07:46:41;7.57;;;6.88;;
66087;SDS011;52872;52.994;6.940;2023-03-19T07:49:08;9.27;;;7.47;;
66087;SDS011;52872;52.994;6.940;2023-03-19T07:51:36;7.65;;;7.00;;
66087;SDS011;52872;52.994;6.940;2023-03-19T07:54:03;7.50;;;6.80;;
66087;SDS011;52872;52.994;6.940;2023-03-19T07:56:30;7.45;;;6.75;;
66087;SDS011;52872;52.994;6.940;2023-03-19T07:58:57;7.35;;;6.60;;
66087;SDS011;52872;52.994;6.940;2023-03-19T08:01:25;9.13;;;8.23;;
66087;SDS011;52872;52.994;6.940;2023-03-19T08:03:52;8.90;;;8.05;;
66087;SDS011;52872;52.994;6.940;2023-03-19T08:06:19;6.85;;;6.25;;
66087;SDS011;52872;52.994;6.940;2023-03-19T08:08:46;9.07;;;8.18;;
66087;SDS011;52872;52.994;6.940;2023-03-19T08:11:13;7.28;;;6.57;;
66087;SDS011;52872;52.994;6.940;2023-03-19T08:13:41;7.47;;;6.75;;
66087;SDS011;52872;52.994;6.940;2023-03-19T08:16:08;8.25;;;7.55;;
66087;SDS011;52872;52.994;6.940;2023-03-19T08:18:35;7.25;;;6.57;;
66087;SDS011;52872;52.994;6.940;2023-03-19T08:21:02;7.57;;;6.28;;
66087;SDS011;52872;52.994;6.940;2023-03-19T08:23:30;7.85;;;7.13;;
66087;SDS011;52872;52.994;6.940;2023-03-19T08:25:56;9.07;;;8.25;;
66087;SDS011;52872;52.994;6.940;2023-03-19T08:28:23;8.40;;;7.65;;
66087;SDS011;52872;52.994;6.940;2023-03-19T08:30:50;8.70;;;7.95;;
66087;SDS011;52872;52.994;6.940;2023-03-19T08:33:18;7.93;;;7.03;;
66087;SDS011;52872;52.994;6.940;2023-03-19T08:35:44;9.60;;;8.55;;
66087;SDS011;52872;52.994;6.940;2023-03-19T08:38:11;8.88;;;7.90;;
66087;SDS011;52872;52.994;6.940;2023-03-19T08:40:38;9.10;;;8.25;;
66087;SDS011;52872;52.994;6.940;2023-03-19T08:43:06;10.80;;;9.85;;
66087;SDS011;52872;52.994;6.940;2023-03-19T08:45:32;11.98;;;10.80;;
66087;SDS011;52872;52.994;6.940;2023-03-19T08:47:59;12.68;;;10.88;;
66087;SDS011;52872;52.994;6.940;2023-03-19T08:50:26;12.48;;;11.27;;
66087;SDS011;52872;52.994;6.940;2023-03-19T08:52:53;12.30;;;11.10;;
66087;SDS011;52872;52.994;6.940;2023-03-19T08:55:21;11.70;;;10.40;;
66087;SDS011;52872;52.994;6.940;2023-03-19T08:57:48;12.18;;;10.93;;
66087;SDS011;52872;52.994;6.940;2023-03-19T09:00:15;12.88;;;11.57;;
66087;SDS011;52872;52.994;6.940;2023-03-19T09:02:43;13.45;;;11.52;;
66087;SDS011;52872;52.994;6.940;2023-03-19T09:05:09;12.95;;;11.50;;
66087;SDS011;52872;52.994;6.940;2023-03-19T09:07:37;12.35;;;10.63;;
66087;SDS011;52872;52.994;6.940;2023-03-19T09:10:04;12.25;;;11.05;;
66087;SDS011;52872;52.994;6.940;2023-03-19T09:12:31;11.60;;;10.50;;
66087;SDS011;52872;52.994;6.940;2023-03-19T09:14:58;12.10;;;11.00;;
66087;SDS011;52872;52.994;6.940;2023-03-19T09:17:25;13.27;;;11.55;;
66087;SDS011;52872;52.994;6.940;2023-03-19T09:19:52;12.50;;;11.20;;
66087;SDS011;52872;52.994;6.940;2023-03-19T09:22:19;12.48;;;11.15;;
66087;SDS011;52872;52.994;6.940;2023-03-19T09:24:46;12.18;;;10.93;;
66087;SDS011;52872;52.994;6.940;2023-03-19T09:27:13;11.15;;;10.13;;
66087;SDS011;52872;52.994;6.940;2023-03-19T09:29:40;11.57;;;10.38;;
66087;SDS011;52872;52.994;6.940;2023-03-19T09:32:07;11.18;;;10.07;;
66087;SDS011;52872;52.994;6.940;2023-03-19T09:34:34;11.13;;;10.02;;
66087;SDS011;52872;52.994;6.940;2023-03-19T09:37:01;11.57;;;10.43;;
66087;SDS011;52872;52.994;6.940;2023-03-19T09:39:28;10.25;;;9.25;;
66087;SDS011;52872;52.994;6.940;2023-03-19T09:42:04;11.55;;;10.43;;
66087;SDS011;52872;52.994;6.940;2023-03-19T09:45:03;10.63;;;9.63;;
66087;SDS011;52872;52.994;6.940;2023-03-19T09:50:23;10.02;;;9.02;;
66087;SDS011;52872;52.994;6.940;2023-03-19T09:52:55;10.00;;;9.10;;
66087;SDS011;52872;52.994;6.940;2023-03-19T09:57:59;9.02;;;8.32;;
66087;SDS011;52872;52.994;6.940;2023-03-19T10:00:34;9.70;;;8.80;;
66087;SDS011;52872;52.994;6.940;2023-03-19T10:03:05;10.02;;;9.13;;
66087;SDS011;52872;52.994;6.940;2023-03-19T10:11:34;10.15;;;9.18;;
66087;SDS011;52872;52.994;6.940;2023-03-19T10:16:54;9.57;;;8.57;;
66087;SDS011;52872;52.994;6.940;2023-03-19T10:22:29;7.70;;;6.90;;
66087;SDS011;52872;52.994;6.940;2023-03-19T10:25:01;7.85;;;7.15;;
66087;SDS011;52872;52.994;6.940;2023-03-19T10:27:30;7.15;;;6.55;;
66087;SDS011;52872;52.994;6.940;2023-03-19T10:29:57;7.68;;;6.97;;
66087;SDS011;52872;52.994;6.940;2023-03-19T10:35:11;6.60;;;6.07;;
66087;SDS011;52872;52.994;6.940;2023-03-19T10:37:42;6.97;;;6.38;;
66087;SDS011;52872;52.994;6.940;2023-03-19T10:40:14;6.45;;;5.85;;
66087;SDS011;52872;52.994;6.940;2023-03-19T10:43:11;6.90;;;5.80;;
66087;SDS011;52872;52.994;6.940;2023-03-19T10:45:45;6.65;;;6.05;;
66087;SDS011;52872;52.994;6.940;2023-03-19T10:48:14;6.30;;;5.70;;
66087;SDS011;52872;52.994;6.940;2023-03-19T10:55:54;6.90;;;6.25;;
66087;SDS011;52872;52.994;6.940;2023-03-19T10:58:29;6.40;;;5.68;;
66087;SDS011;52872;52.994;6.940;2023-03-19T11:01:03;6.47;;;5.88;;
66087;SDS011;52872;52.994;6.940;2023-03-19T11:03:49;6.05;;;5.40;;
66087;SDS011;52872;52.994;6.940;2023-03-19T11:06:34;7.68;;;5.88;;
66087;SDS011;52872;52.994;6.940;2023-03-19T11:11:42;6.10;;;5.50;;
66087;SDS011;52872;52.994;6.940;2023-03-19T11:19:50;6.93;;;6.32;;
66087;SDS011;52872;52.994;6.940;2023-03-19T11:22:24;6.88;;;6.35;;
66087;SDS011;52872;52.994;6.940;2023-03-19T11:24:59;6.85;;;6.28;;
66087;SDS011;52872;52.994;6.940;2023-03-19T11:27:40;6.68;;;6.05;;
66087;SDS011;52872;52.994;6.940;2023-03-19T11:30:16;7.40;;;6.57;;
66087;SDS011;52872;52.994;6.940;2023-03-19T11:35:36;6.60;;;6.10;;
66087;SDS011;52872;52.994;6.940;2023-03-19T11:38:11;7.47;;;6.78;;
66087;SDS011;52872;52.994;6.940;2023-03-19T11:40:45;8.20;;;6.90;;
66087;SDS011;52872;52.994;6.940;2023-03-19T11:46:44;7.93;;;7.10;;
66087;SDS011;52872;52.994;6.940;2023-03-19T11:51:48;8.32;;;7.45;;
66087;SDS011;52872;52.994;6.940;2023-03-19T11:57:16;8.10;;;7.30;;
66087;SDS011;52872;52.994;6.940;2023-03-19T12:05:50;9.10;;;8.10;;
66087;SDS011;52872;52.994;6.940;2023-03-19T12:08:39;9.18;;;8.27;;
66087;SDS011;52872;52.994;6.940;2023-03-19T12:17:19;8.40;;;7.65;;
66087;SDS011;52872;52.994;6.940;2023-03-19T12:25:28;8.63;;;7.82;;
66087;SDS011;52872;52.994;6.940;2023-03-19T12:28:12;8.70;;;7.93;;
66087;SDS011;52872;52.994;6.940;2023-03-19T12:30:48;9.00;;;8.20;;
66087;SDS011;52872;52.994;6.940;2023-03-19T12:36:47;9.32;;;8.18;;
66087;SDS011;52872;52.994;6.940;2023-03-19T12:39:28;9.80;;;8.80;;
66087;SDS011;52872;52.994;6.940;2023-03-19T12:41:59;10.25;;;9.25;;
66087;SDS011;52872;52.994;6.940;2023-03-19T12:44:36;10.43;;;9.48;;
66087;SDS011;52872;52.994;6.940;2023-03-19T12:47:13;9.38;;;8.48;;
66087;SDS011;52872;52.994;6.940;2023-03-19T12:49:49;9.90;;;8.98;;
66087;SDS011;52872;52.994;6.940;2023-03-19T12:52:21;9.50;;;8.70;;
66087;SDS011;52872;52.994;6.940;2023-03-19T12:55:16;10.80;;;9.80;;
66087;SDS011;52872;52.994;6.940;2023-03-19T13:00:30;9.48;;;8.05;;
66087;SDS011;52872;52.994;6.940;2023-03-19T13:03:26;8.98;;;8.07;;
66087;SDS011;52872;52.994;6.940;2023-03-19T13:11:50;10.02;;;9.13;;
66087;SDS011;52872;52.994;6.940;2023-03-19T13:17:47;10.15;;;9.02;;
66087;SDS011;52872;52.994;6.940;2023-03-19T13:23:29;10.00;;;9.00;;
66087;SDS011;52872;52.994;6.940;2023-03-19T13:25:59;9.23;;;8.43;;
66087;SDS011;52872;52.994;6.940;2023-03-19T13:28:33;10.00;;;9.10;;
66087;SDS011;52872;52.994;6.940;2023-03-19T13:33:33;8.63;;;7.82;;
66087;SDS011;52872;52.994;6.940;2023-03-19T13:36:03;8.88;;;8.07;;
66087;SDS011;52872;52.994;6.940;2023-03-19T13:41:23;8.50;;;7.70;;
66087;SDS011;52872;52.994;6.940;2023-03-19T13:47:01;9.68;;;7.40;;
66087;SDS011;52872;52.994;6.940;2023-03-19T13:52:50;7.82;;;7.07;;
66087;SDS011;52872;52.994;6.940;2023-03-19T13:55:26;9.77;;;8.07;;
66087;SDS011;52872;52.994;6.940;2023-03-19T13:58:09;8.80;;;7.97;;
66087;SDS011;52872;52.994;6.940;2023-03-19T14:03:19;9.60;;;8.32;;
66087;SDS011;52872;52.994;6.940;2023-03-19T14:05:52;9.68;;;8.68;;
66087;SDS011;52872;52.994;6.940;2023-03-19T14:08:25;9.98;;;8.98;;
66087;SDS011;52872;52.994;6.940;2023-03-19T14:10:55;10.52;;;9.43;;
66087;SDS011;52872;52.994;6.940;2023-03-19T14:13:32;10.57;;;9.57;;
66087;SDS011;52872;52.994;6.940;2023-03-19T14:16:16;9.57;;;8.57;;
66087;SDS011;52872;52.994;6.940;2023-03-19T14:18:46;10.05;;;8.93;;
66087;SDS011;52872;52.994;6.940;2023-03-19T14:21:16;10.93;;;9.32;;
66087;SDS011;52872;52.994;6.940;2023-03-19T14:27:13;10.25;;;9.25;;
66087;SDS011;52872;52.994;6.940;2023-03-19T14:29:43;10.32;;;9.32;;
66087;SDS011;52872;52.994;6.940;2023-03-19T14:32:16;9.77;;;8.90;;
66087;SDS011;52872;52.994;6.940;2023-03-19T14:34:46;9.43;;;8.43;;
66087;SDS011;52872;52.994;6.940;2023-03-19T14:37:20;11.73;;;8.32;;
66087;SDS011;52872;52.994;6.940;2023-03-19T14:42:49;11.20;;;8.80;;
66087;SDS011;52872;52.994;6.940;2023-03-19T14:57:07;11.13;;;8.77;;
66087;SDS011;52872;52.994;6.940;2023-03-19T14:59:46;11.52;;;9.45;;
66087;SDS011;52872;52.994;6.940;2023-03-19T15:04:51;12.20;;;9.23;;
66087;SDS011;52872;52.994;6.940;2023-03-19T15:07:21;10.65;;;9.55;;
66087;SDS011;52872;52.994;6.940;2023-03-19T15:09:54;11.95;;;9.13;;
66087;SDS011;52872;52.994;6.940;2023-03-19T15:12:34;9.75;;;8.50;;
66087;SDS011;52872;52.994;6.940;2023-03-19T15:18:03;10.43;;;8.77;;
66087;SDS011;52872;52.994;6.940;2023-03-19T15:20:38;10.80;;;8.65;;
66087;SDS011;52872;52.994;6.940;2023-03-19T15:23:12;10.48;;;8.18;;
66087;SDS011;52872;52.994;6.940;2023-03-19T15:25:56;10.63;;;8.98;;
66087;SDS011;52872;52.994;6.940;2023-03-19T15:28:29;10.18;;;8.75;;
66087;SDS011;52872;52.994;6.940;2023-03-19T15:31:01;12.32;;;9.68;;
66087;SDS011;52872;52.994;6.940;2023-03-19T15:33:51;14.07;;;10.55;;
66087;SDS011;52872;52.994;6.940;2023-03-19T15:36:37;12.80;;;10.32;;
66087;SDS011;52872;52.994;6.940;2023-03-19T15:39:05;13.25;;;11.77;;
66087;SDS011;52872;52.994;6.940;2023-03-19T15:41:37;16.42;;;13.45;;
66087;SDS011;52872;52.994;6.940;2023-03-19T15:44:10;16.90;;;13.68;;
66087;SDS011;52872;52.994;6.940;2023-03-19T15:46:40;18.80;;;14.43;;
66087;SDS011;52872;52.994;6.940;2023-03-19T15:49:11;19.60;;;15.23;;
66087;SDS011;52872;52.994;6.940;2023-03-19T15:51:44;22.83;;;14.88;;
66087;SDS011;52872;52.994;6.940;2023-03-19T15:54:17;18.75;;;15.02;;
66087;SDS011;52872;52.994;6.940;2023-03-19T15:56:45;20.75;;;13.38;;
66087;SDS011;52872;52.994;6.940;2023-03-19T15:59:16;19.92;;;13.98;;
66087;SDS011;52872;52.994;6.940;2023-03-19T16:01:45;19.92;;;15.27;;
66087;SDS011;52872;52.994;6.940;2023-03-19T16:04:14;21.73;;;15.30;;
66087;SDS011;52872;52.994;6.940;2023-03-19T16:06:46;21.50;;;14.70;;
66087;SDS011;52872;52.994;6.940;2023-03-19T16:09:21;21.70;;;15.10;;
66087;SDS011;52872;52.994;6.940;2023-03-19T16:11:53;23.20;;;14.65;;
66087;SDS011;52872;52.994;6.940;2023-03-19T16:16:49;20.52;;;13.93;;
66087;SDS011;52872;52.994;6.940;2023-03-19T16:22:13;23.20;;;15.90;;
66087;SDS011;52872;52.994;6.940;2023-03-19T16:24:45;23.58;;;15.55;;
66087;SDS011;52872;52.994;6.940;2023-03-19T16:27:17;24.75;;;15.27;;
66087;SDS011;52872;52.994;6.940;2023-03-19T16:29:47;22.20;;;15.10;;
66087;SDS011;52872;52.994;6.940;2023-03-19T16:32:25;21.73;;;14.48;;
66087;SDS011;52872;52.994;6.940;2023-03-19T16:37:52;19.67;;;12.55;;
66087;SDS011;52872;52.994;6.940;2023-03-19T16:42:47;21.52;;;13.13;;
66087;SDS011;52872;52.994;6.940;2023-03-19T16:47:44;17.58;;;11.38;;
66087;SDS011;52872;52.994;6.940;2023-03-19T16:50:32;18.17;;;12.70;;
66087;SDS011;52872;52.994;6.940;2023-03-19T16:53:03;18.95;;;12.10;;
66087;SDS011;52872;52.994;6.940;2023-03-19T16:55:45;18.27;;;12.38;;
66087;SDS011;52872;52.994;6.940;2023-03-19T17:00:51;19.48;;;12.70;;
66087;SDS011;52872;52.994;6.940;2023-03-19T17:03:18;20.70;;;12.93;;
66087;SDS011;52872;52.994;6.940;2023-03-19T17:05:46;24.38;;;13.75;;
66087;SDS011;52872;52.994;6.940;2023-03-19T17:08:14;23.65;;;13.93;;
66087;SDS011;52872;52.994;6.940;2023-03-19T17:10:42;23.85;;;13.65;;
66087;SDS011;52872;52.994;6.940;2023-03-19T17:13:17;23.17;;;13.75;;